| time (UTC) | temp F | wind direction | speed MPH | gust MPH | rain 1hr in | rain 24hr in | rain mn in | humidity % | barometer mb |
| 20260509124503 | 68 | 180 | 7.0 | 17.0 | 0.00 | 0.04 | 0.00 | 58 | 1009.2 |
| 20260509124003 | 68 | 182 | 8.0 | 17.0 | 0.00 | 0.04 | 0.00 | 58 | 1009.4 |
| 20260509123503 | 68 | 181 | 10.0 | 17.0 | 0.00 | 0.04 | 0.00 | 57 | 1009.5 |
| 20260509123017 | 68 | 183 | 11.0 | 18.0 | 0.00 | 0.04 | 0.00 | 57 | 1009.7 |
| 20260509122517 | 68 | 191 | 10.0 | 18.0 | 0.00 | 0.04 | 0.00 | 57 | 1009.7 |
| 20260509122003 | 68 | 190 | 10.0 | 21.0 | 0.00 | 0.04 | 0.00 | 57 | 1009.6 |
| 20260509121503 | 68 | 185 | 11.0 | 21.0 | 0.00 | 0.04 | 0.00 | 57 | 1009.7 |
| 20260509121003 | 68 | 185 | 9.0 | 21.0 | 0.00 | 0.04 | 0.00 | 57 | 1009.7 |
| 20260509120503 | 68 | 184 | 8.0 | 18.0 | 0.00 | 0.04 | 0.00 | 57 | 1009.7 |
| 20260509120003 | 68 | 185 | 9.0 | 19.0 | 0.00 | 0.04 | 0.00 | 58 | 1009.7 |
| 20260509115503 | 68 | 183 | 9.0 | 21.0 | 0.00 | 0.04 | 0.00 | 58 | 1009.9 |
| 20260509115003 | 67 | 176 | 9.0 | 21.0 | 0.00 | 0.04 | 0.00 | 58 | 1009.8 |
| 20260509114517 | 67 | 177 | 9.0 | 20.0 | 0.00 | 0.04 | 0.00 | 57 | 1009.9 |
| 20260509114003 | 68 | 182 | 10.0 | 18.0 | 0.00 | 0.04 | 0.00 | 57 | 1009.9 |
| 20260509113517 | 68 | 181 | 11.0 | 19.0 | 0.00 | 0.04 | 0.00 | 56 | 1010.0 |
| 20260509113003 | 68 | 179 | 9.0 | 19.0 | 0.00 | 0.04 | 0.00 | 55 | 1010.0 |
| 20260509112503 | 68 | 187 | 7.0 | 17.0 | 0.00 | 0.04 | 0.00 | 56 | 1010.1 |
| 20260509112017 | 68 | 194 | 7.0 | 15.0 | 0.00 | 0.04 | 0.00 | 56 | 1010.1 |
| 20260509111503 | 68 | 192 | 7.0 | 16.0 | 0.00 | 0.04 | 0.00 | 56 | 1010.2 |
| 20260509111003 | 68 | 190 | 7.0 | 16.0 | 0.00 | 0.04 | 0.00 | 56 | 1010.1 |
| 20260509110503 | 68 | 200 | 7.0 | 16.0 | 0.00 | 0.04 | 0.00 | 55 | 1010.2 |
| 20260509110003 | 68 | 197 | 8.0 | 16.0 | 0.00 | 0.04 | 0.00 | 56 | 1010.2 |
| 20260509105503 | 68 | 186 | 8.0 | 16.0 | 0.00 | 0.04 | 0.00 | 54 | 1010.3 |
| 20260509105003 | 67 | 180 | 8.0 | 16.0 | 0.00 | 0.04 | 0.00 | 55 | 1010.2 |
| 20260509104517 | 67 | 177 | 6.0 | 14.0 | 0.00 | 0.04 | 0.00 | 55 | 1010.2 |
| 20260509104003 | 68 | 185 | 5.0 | 11.0 | 0.00 | 0.04 | 0.00 | 55 | 1010.3 |
| 20260509103503 | 68 | 190 | 3.0 | 9.0 | 0.00 | 0.04 | 0.00 | 55 | 1010.2 |
| 20260509103003 | 68 | 198 | 2.0 | 6.0 | 0.00 | 0.04 | 0.00 | 56 | 1010.1 |
| 20260509102503 | 68 | 192 | 3.0 | 9.0 | 0.00 | 0.04 | 0.00 | 55 | 1010.0 |
| 20260509102003 | 68 | 178 | 5.0 | 13.0 | 0.00 | 0.04 | 0.00 | 55 | 1009.7 |
| 20260509101503 | 68 | 177 | 6.0 | 13.0 | 0.00 | 0.04 | 0.00 | 55 | 1009.8 |
| 20260509101003 | 68 | 181 | 6.0 | 11.0 | 0.00 | 0.04 | 0.00 | 54 | 1009.8 |
| 20260509100503 | 68 | 180 | 7.0 | 14.0 | 0.00 | 0.04 | 0.00 | 54 | 1009.7 |
| 20260509100004 | 68 | 186 | 7.0 | 14.0 | 0.00 | 0.04 | 0.00 | 54 | 1009.7 |
| 20260509095503 | 68 | 200 | 6.0 | 13.0 | 0.00 | 0.04 | 0.00 | 54 | 1009.8 |
| 20260509095003 | 67 | 195 | 6.0 | 11.0 | 0.00 | 0.04 | 0.00 | 54 | 1009.7 |
| 20260509094517 | 68 | 186 | 5.0 | 12.0 | 0.00 | 0.04 | 0.00 | 54 | 1009.6 |
| 20260509094003 | 68 | 189 | 5.0 | 12.0 | 0.00 | 0.04 | 0.00 | 54 | 1009.7 |
| 20260509093503 | 68 | 197 | 4.0 | 8.0 | 0.00 | 0.04 | 0.00 | 57 | 1009.7 |
| 20260509093058 | 67 | 211 | 4.0 | 8.0 | 0.00 | 0.04 | 0.00 | 56 | 1009.1 |
| 20260509093017 | 67 | 187 | 3.0 | 8.0 | 0.00 | 0.04 | 0.00 | 57 | 1009.5 |
| 20260509092503 | 67 | 175 | 3.0 | 9.0 | 0.00 | 0.04 | 0.00 | 57 | 1009.5 |
| 20260509092003 | 67 | 194 | 3.0 | 9.0 | 0.00 | 0.04 | 0.00 | 56 | 1009.5 |
| 20260509091503 | 67 | 236 | 2.0 | 6.0 | 0.00 | 0.04 | 0.00 | 59 | 1009.7 |
| 20260509091017 | 67 | 217 | 3.0 | 6.0 | 0.00 | 0.04 | 0.00 | 57 | 1009.6 |
| 20260509090517 | 67 | 208 | 3.0 | 7.0 | 0.00 | 0.04 | 0.00 | 57 | 1009.7 |
| 20260509090003 | 66 | 198 | 3.0 | 7.0 | 0.00 | 0.04 | 0.00 | 60 | 1009.6 |
| 20260509085503 | 66 | 172 | 3.0 | 7.0 | 0.00 | 0.04 | 0.00 | 59 | 1009.7 |
| 20260509085003 | 66 | 182 | 3.0 | 8.0 | 0.00 | 0.04 | 0.00 | 57 | 1009.8 |
| 20260509084517 | 66 | 206 | 5.0 | 11.0 | 0.00 | 0.04 | 0.00 | 57 | 1009.9 |
| 20260509084003 | 66 | 191 | 6.0 | 14.0 | 0.00 | 0.04 | 0.00 | 58 | 1009.9 |
| 20260509083517 | 66 | 167 | 6.0 | 14.0 | 0.00 | 0.04 | 0.00 | 57 | 1010.0 |
| 20260509083044 | 65 | 203 | 5.0 | 12.0 | 0.00 | 0.04 | 0.00 | 58 | 1009.4 |
| 20260509083003 | 66 | 166 | 6.0 | 14.0 | 0.00 | 0.04 | 0.00 | 58 | 1009.9 |
| 20260509082503 | 66 | 191 | 7.0 | 19.0 | 0.00 | 0.04 | 0.00 | 58 | 1009.9 |
| 20260509082003 | 66 | 199 | 9.0 | 24.0 | 0.00 | 0.04 | 0.00 | 57 | 1010.0 |
| 20260509081532 | 65 | 184 | 8.0 | 20.0 | 0.00 | 0.04 | 0.00 | 57 | 1009.4 |
| 20260509081503 | 66 | 191 | 10.0 | 24.0 | 0.00 | 0.04 | 0.00 | 57 | 1010.0 |
| 20260509081003 | 66 | 190 | 10.0 | 20.0 | 0.00 | 0.04 | 0.00 | 57 | 1010.0 |
| 20260509080517 | 66 | 196 | 11.0 | 20.0 | 0.00 | 0.04 | 0.00 | 57 | 1009.9 |
| 20260509080021 | 65 | 179 | 9.0 | 21.0 | 0.00 | 0.04 | 0.00 | 57 | 1009.4 |
| 20260509080003 | 66 | 201 | 12.0 | 22.0 | 0.00 | 0.04 | 0.00 | 57 | 1010.1 |
| 20260509075503 | 66 | 204 | 12.0 | 22.0 | 0.00 | 0.04 | 0.00 | 57 | 1010.1 |
| 20260509075003 | 66 | 203 | 12.0 | 22.0 | 0.00 | 0.04 | 0.00 | 58 | 1009.9 |
| 20260509074517 | 66 | 200 | 11.0 | 22.0 | 0.00 | 0.04 | 0.00 | 58 | 1010.1 |
| 20260509074513 | 65 | 159 | 11.0 | 21.0 | 0.00 | 0.04 | 0.00 | 58 | 1009.6 |
| 20260509074003 | 66 | 196 | 10.0 | 19.0 | 0.00 | 0.04 | 0.00 | 58 | 1010.3 |
| 20260509073503 | 66 | 183 | 11.0 | 27.0 | 0.00 | 0.04 | 0.00 | 58 | 1010.1 |
| 20260509073010 | 65 | 171 | 9.0 | 22.0 | 0.00 | 0.04 | 0.00 | 58 | 1009.4 |
| 20260509073003 | 66 | 185 | 10.0 | 27.0 | 0.00 | 0.04 | 0.00 | 58 | 1010.1 |
| 20260509072503 | 66 | 195 | 10.0 | 19.0 | 0.00 | 0.04 | 0.00 | 58 | 1010.1 |
| 20260509072003 | 66 | 203 | 11.0 | 19.0 | 0.00 | 0.04 | 0.00 | 57 | 1010.2 |
| 20260509071503 | 66 | 198 | 10.0 | 19.0 | 0.00 | 0.04 | 0.00 | 58 | 1010.1 |
| 20260509071501 | 65 | 210 | 10.0 | 18.0 | 0.00 | 0.04 | 0.00 | 58 | 1009.7 |
| 20260509071003 | 66 | 189 | 11.0 | 20.0 | 0.00 | 0.04 | 0.00 | 59 | 1010.1 |
| 20260509070503 | 66 | 194 | 11.0 | 20.0 | 0.00 | 0.04 | 0.00 | 59 | 1010.0 |
| 20260509070003 | 65 | 193 | 11.0 | 20.0 | 0.00 | 0.04 | 0.00 | 59 | 1010.0 |
| 20260509065503 | 65 | 189 | 11.0 | 22.0 | 0.00 | 0.04 | 0.00 | 60 | 1010.2 |
| 20260509065003 | 65 | 199 | 10.0 | 22.0 | 0.00 | 0.04 | 0.00 | 60 | 1010.2 |
| 20260509064503 | 65 | 204 | 10.0 | 20.0 | 0.00 | 0.04 | 0.00 | 60 | 1010.2 |
| 20260509064003 | 65 | 199 | 10.0 | 20.0 | 0.00 | 0.04 | 0.00 | 60 | 1010.1 |
| 20260509063503 | 64 | 200 | 9.0 | 17.0 | 0.00 | 0.04 | 0.00 | 61 | 1010.0 |
| 20260509063003 | 64 | 194 | 8.0 | 15.0 | 0.00 | 0.04 | 0.00 | 62 | 1010.0 |
| 20260509062503 | 64 | 178 | 8.0 | 16.0 | 0.00 | 0.04 | 0.00 | 61 | 1010.0 |
| 20260509062003 | 64 | 179 | 7.0 | 18.0 | 0.00 | 0.04 | 0.00 | 62 | 1009.9 |
| 20260509061504 | 64 | 195 | 6.0 | 18.0 | 0.00 | 0.04 | 0.00 | 63 | 1010.0 |
| 20260509061003 | 64 | 206 | 6.0 | 13.0 | 0.00 | 0.04 | 0.00 | 63 | 1010.0 |
| 20260509060504 | 64 | 204 | 6.0 | 13.0 | 0.00 | 0.04 | 0.00 | 63 | 1010.0 |
| 20260509060003 | 64 | 197 | 7.0 | 13.0 | 0.00 | 0.04 | 0.00 | 62 | 1010.0 |
| 20260509055503 | 64 | 194 | 8.0 | 15.0 | 0.00 | 0.04 | 0.00 | 63 | 1010.1 |
| 20260509055003 | 63 | 199 | 7.0 | 15.0 | 0.00 | 0.04 | 0.00 | 63 | 1010.1 |
| 20260509054503 | 63 | 209 | 7.0 | 12.0 | 0.00 | 0.04 | 0.00 | 63 | 1010.1 |
| 20260509054017 | 63 | 198 | 6.0 | 14.0 | 0.00 | 0.04 | 0.00 | 63 | 1010.0 |
| 20260509053517 | 63 | 192 | 6.0 | 14.0 | 0.00 | 0.04 | 0.00 | 63 | 1010.0 |
| 20260509053017 | 63 | 193 | 5.0 | 11.0 | 0.00 | 0.04 | 0.00 | 63 | 1010.0 |
| 20260509052503 | 63 | 194 | 5.0 | 9.0 | 0.00 | 0.04 | 0.00 | 64 | 1009.9 |
| 20260509052003 | 63 | 201 | 5.0 | 10.0 | 0.00 | 0.04 | 0.00 | 63 | 1010.0 |
| 20260509051503 | 63 | 202 | 5.0 | 11.0 | 0.00 | 0.04 | 0.00 | 63 | 1010.0 |
| 20260509051017 | 63 | 200 | 6.0 | 12.0 | 0.00 | 0.04 | 0.00 | 63 | 1010.0 |
| 20260509050503 | 63 | 197 | 7.0 | 14.0 | 0.00 | 0.04 | 0.00 | 63 | 1010.1 |
| 20260509050017 | 63 | 194 | 8.0 | 14.0 | 0.00 | 0.04 | 0.00 | 63 | 1010.1 |
| 20260509045503 | 63 | 194 | 8.0 | 21.0 | 0.00 | 0.04 | 0.00 | 63 | 1010.2 |
| 20260509045003 | 63 | 201 | 8.0 | 21.0 | 0.00 | 0.04 | 0.00 | 63 | 1010.2 |
| 20260509044503 | 63 | 201 | 8.0 | 15.0 | 0.00 | 0.04 | 0.00 | 63 | 1010.2 |
| 20260509044003 | 63 | 199 | 7.0 | 14.0 | 0.00 | 0.04 | 0.00 | 64 | 1010.2 |
| 20260509043503 | 62 | 203 | 7.0 | 13.0 | 0.00 | 0.04 | 0.00 | 64 | 1010.1 |
| 20260509043017 | 62 | 202 | 6.0 | 12.0 | 0.00 | 0.04 | 0.00 | 64 | 1010.2 |
| 20260509042503 | 62 | 209 | 6.0 | 12.0 | 0.00 | 0.04 | 0.00 | 64 | 1010.2 |
| 20260509042004 | 62 | 213 | 6.0 | 12.0 | 0.00 | 0.04 | 0.00 | 64 | 1010.3 |
| 20260509041503 | 62 | 206 | 6.0 | 12.0 | 0.00 | 0.04 | 0.00 | 63 | 1010.2 |
| 20260509041017 | 62 | 207 | 6.0 | 12.0 | 0.00 | 0.04 | 0.00 | 64 | 1010.2 |
| 20260509040517 | 62 | 214 | 7.0 | 13.0 | 0.00 | 0.04 | 0.00 | 64 | 1010.4 |
| 20260509040017 | 62 | 209 | 6.0 | 13.0 | 0.00 | 0.04 | 0.00 | 63 | 1010.4 |
| 20260509035503 | 62 | 204 | 6.0 | 11.0 | 0.00 | 0.04 | 0.00 | 63 | 1010.3 |
| 20260509035003 | 62 | 206 | 6.0 | 12.0 | 0.00 | 0.04 | 0.00 | 63 | 1010.5 |
| 20260509034503 | 62 | 200 | 7.0 | 12.0 | 0.00 | 0.04 | 0.00 | 63 | 1010.5 |
| 20260509034003 | 63 | 200 | 6.0 | 12.0 | 0.00 | 0.04 | 0.00 | 63 | 1010.5 |
| 20260509033517 | 62 | 205 | 6.0 | 12.0 | 0.00 | 0.04 | 0.00 | 63 | 1010.5 |
| 20260509033003 | 63 | 199 | 7.0 | 12.0 | 0.00 | 0.04 | 0.00 | 63 | 1010.6 |
| 20260509032504 | 63 | 199 | 6.0 | 11.0 | 0.00 | 0.04 | 0.00 | 62 | 1010.6 |
| 20260509032003 | 63 | 201 | 6.0 | 11.0 | 0.00 | 0.04 | 0.00 | 62 | 1010.8 |
| 20260509031503 | 63 | 192 | 6.0 | 11.0 | 0.00 | 0.04 | 0.00 | 62 | 1010.7 |
| 20260509031003 | 63 | 186 | 5.0 | 11.0 | 0.00 | 0.04 | 0.00 | 63 | 1010.9 |
| 20260509030503 | 62 | 188 | 5.0 | 10.0 | 0.00 | 0.04 | 0.00 | 63 | 1010.8 |
| 20260509030003 | 63 | 196 | 5.0 | 10.0 | 0.00 | 0.04 | 0.00 | 63 | 1010.7 |
| 20260509025503 | 63 | 202 | 5.0 | 12.0 | 0.00 | 0.04 | 0.00 | 62 | 1010.8 |
| 20260509025003 | 63 | 194 | 6.0 | 12.0 | 0.00 | 0.04 | 0.00 | 63 | 1010.8 |
| 20260509024517 | 63 | 197 | 6.0 | 13.0 | 0.00 | 0.04 | 0.00 | 63 | 1010.7 |
| 20260509024017 | 63 | 205 | 6.0 | 13.0 | 0.00 | 0.04 | 0.00 | 63 | 1010.7 |
| 20260509023503 | 63 | 202 | 6.0 | 13.0 | 0.00 | 0.04 | 0.00 | 63 | 1010.7 |
| 20260509023003 | 63 | 204 | 6.0 | 12.0 | 0.00 | 0.04 | 0.00 | 63 | 1010.7 |
| 20260509022503 | 63 | 202 | 6.0 | 13.0 | 0.00 | 0.04 | 0.00 | 64 | 1010.7 |
| 20260509022003 | 63 | 204 | 7.0 | 13.0 | 0.00 | 0.04 | 0.00 | 64 | 1010.8 |
| 20260509021503 | 63 | 203 | 6.0 | 12.0 | 0.00 | 0.04 | 0.00 | 63 | 1010.7 |
| 20260509021003 | 63 | 190 | 6.0 | 11.0 | 0.00 | 0.04 | 0.00 | 64 | 1010.7 |
| 20260509020503 | 63 | 190 | 6.0 | 12.0 | 0.00 | 0.04 | 0.00 | 63 | 1010.6 |
| 20260509020003 | 63 | 205 | 6.0 | 12.0 | 0.00 | 0.04 | 0.00 | 63 | 1010.8 |
| 20260509015517 | 63 | 218 | 6.0 | 12.0 | 0.00 | 0.04 | 0.00 | 63 | 1010.7 |
| 20260509015003 | 63 | 204 | 5.0 | 10.0 | 0.00 | 0.04 | 0.00 | 63 | 1010.7 |
| 20260509014517 | 63 | 190 | 5.0 | 10.0 | 0.00 | 0.04 | 0.00 | 63 | 1010.8 |
| 20260509014003 | 63 | 184 | 5.0 | 10.0 | 0.00 | 0.04 | 0.00 | 63 | 1010.7 |
| 20260509013503 | 63 | 181 | 6.0 | 11.0 | 0.00 | 0.04 | 0.00 | 63 | 1010.8 |
| 20260509013003 | 63 | 193 | 5.0 | 12.0 | 0.00 | 0.04 | 0.00 | 64 | 1010.9 |
| 20260509012503 | 62 | 208 | 4.0 | 12.0 | 0.00 | 0.04 | 0.00 | 66 | 1010.9 |
| 20260509012003 | 62 | 215 | 3.0 | 8.0 | 0.00 | 0.04 | 0.00 | 68 | 1010.9 |
| 20260509011503 | 61 | 229 | 2.0 | 7.0 | 0.00 | 0.04 | 0.00 | 71 | 1010.8 |
| 20260509011003 | 60 | 249 | 1.0 | 7.0 | 0.00 | 0.04 | 0.00 | 75 | 1010.9 |
| 20260509010517 | 58 | 320 | 1.0 | 5.0 | 0.00 | 0.04 | 0.00 | 77 | 1010.8 |
| 20260509010003 | 58 | 326 | 1.0 | 5.0 | 0.00 | 0.04 | 0.00 | 79 | 1010.8 |
| 20260509005517 | 58 | 30 | 0.0 | 2.0 | 0.00 | 0.04 | 0.00 | 80 | 1010.9 |
| 20260509005003 | 58 | 35 | 1.0 | 3.0 | 0.00 | 0.04 | 0.00 | 81 | 1011.0 |
| 20260509004503 | 57 | 39 | 1.0 | 3.0 | 0.00 | 0.04 | 0.00 | 82 | 1011.0 |
| 20260509004003 | 58 | 56 | 1.0 | 4.0 | 0.00 | 0.04 | 0.00 | 82 | 1011.0 |
| 20260509003503 | 58 | 56 | 1.0 | 4.0 | 0.00 | 0.04 | 0.00 | 82 | 1011.0 |
| 20260509003003 | 58 | 58 | 1.0 | 4.0 | 0.00 | 0.04 | 0.00 | 81 | 1011.1 |
| 20260509002503 | 58 | 69 | 1.0 | 3.0 | 0.00 | 0.04 | 0.00 | 81 | 1011.1 |
| 20260509002003 | 58 | 77 | 1.0 | 3.0 | 0.00 | 0.04 | 0.00 | 81 | 1011.0 |
| 20260509001503 | 58 | 18 | 1.0 | 5.0 | 0.00 | 0.04 | 0.00 | 81 | 1011.2 |
| 20260509001003 | 59 | 327 | 1.0 | 5.0 | 0.00 | 0.04 | 0.00 | 80 | 1011.2 |
| 20260509000517 | 59 | 311 | 1.0 | 3.0 | 0.00 | 0.04 | 0.00 | 79 | 1011.1 |
| 20260509000004 | 59 | 311 | 1.0 | 3.0 | 0.00 | 0.04 | 0.00 | 78 | 1011.1 |
| 20260508235503 | 59 | 311 | 0.0 | 2.0 | 0.00 | 0.04 | 0.00 | 79 | 1011.2 |
| 20260508235003 | 60 | 310 | 0.0 | 3.0 | 0.00 | 0.04 | 0.00 | 79 | 1011.2 |
| 20260508234517 | 60 | 310 | 1.0 | 3.0 | 0.00 | 0.04 | 0.00 | 79 | 1011.2 |
| 20260508234003 | 60 | 315 | 2.0 | 5.0 | 0.00 | 0.04 | 0.00 | 78 | 1011.1 |
| 20260508233503 | 59 | 311 | 2.0 | 5.0 | 0.00 | 0.04 | 0.00 | 78 | 1011.2 |
| 20260508233003 | 59 | 304 | 2.0 | 5.0 | 0.00 | 0.04 | 0.00 | 80 | 1011.2 |
| 20260508232503 | 58 | 304 | 1.0 | 3.0 | 0.00 | 0.04 | 0.00 | 81 | 1011.4 |
| 20260508232003 | 58 | 304 | 1.0 | 2.0 | 0.00 | 0.04 | 0.00 | 82 | 1011.4 |
| 20260508231503 | 58 | 304 | 1.0 | 3.0 | 0.00 | 0.04 | 0.00 | 83 | 1011.4 |
| 20260508231003 | 58 | 304 | 1.0 | 3.0 | 0.00 | 0.04 | 0.00 | 83 | 1011.5 |
| 20260508230503 | 58 | 304 | 1.0 | 3.0 | 0.00 | 0.04 | 0.00 | 84 | 1011.4 |
| 20260508230003 | 58 | 304 | 1.0 | 3.0 | 0.00 | 0.04 | 0.00 | 85 | 1011.6 |
| 20260508225518 | 58 | 304 | 0.0 | 2.0 | 0.00 | 0.04 | 0.00 | 85 | 1011.6 |
| 20260508225003 | 58 | 304 | 0.0 | 3.0 | 0.00 | 0.04 | 0.00 | 85 | 1011.5 |
| 20260508224503 | 58 | 303 | 1.0 | 3.0 | 0.00 | 0.04 | 0.00 | 85 | 1011.5 |
| 20260508224017 | 58 | 303 | 1.0 | 3.0 | 0.00 | 0.04 | 0.00 | 85 | 1011.7 |
| 20260508223503 | 58 | 302 | 1.0 | 3.0 | 0.00 | 0.04 | 0.00 | 85 | 1011.8 |
| 20260508223003 | 58 | 301 | 0.0 | 1.0 | 0.00 | 0.04 | 0.00 | 85 | 1011.8 |
| 20260508222503 | 58 | 301 | 0.0 | 1.0 | 0.00 | 0.04 | 0.00 | 85 | 1011.9 |
| 20260508222003 | 58 | 301 | 0.0 | 1.0 | 0.00 | 0.04 | 0.00 | 85 | 1012.0 |
| 20260508221503 | 58 | 301 | 0.0 | 3.0 | 0.00 | 0.04 | 0.00 | 85 | 1012.2 |
| 20260508221003 | 58 | 300 | 1.0 | 3.0 | 0.00 | 0.04 | 0.00 | 85 | 1012.1 |
| 20260508220517 | 58 | 299 | 0.0 | 3.0 | 0.00 | 0.04 | 0.00 | 85 | 1012.2 |
| 20260508220003 | 58 | 298 | 0.0 | 2.0 | 0.00 | 0.04 | 0.00 | 85 | 1012.2 |
| 20260508215503 | 59 | 298 | 0.0 | 2.0 | 0.00 | 0.04 | 0.04 | 84 | 1012.2 |
| 20260508215003 | 59 | 0 | 0.0 | 0.0 | 0.00 | 0.04 | 0.04 | 85 | 1012.3 |
| 20260508214503 | 59 | 0 | 0.0 | 0.0 | 0.00 | 0.04 | 0.04 | 84 | 1012.4 |
| 20260508214003 | 59 | 0 | 0.0 | 0.0 | 0.00 | 0.04 | 0.04 | 84 | 1012.5 |
| 20260508213510 | 59 | 0 | 0.0 | 0.0 | 0.00 | 0.04 | 0.04 | 84 | 1012.4 |
| 20260508213017 | 59 | 0 | 0.0 | 0.0 | 0.00 | 0.04 | 0.04 | 83 | 1012.4 |
| 20260508212503 | 59 | 0 | 0.0 | 0.0 | 0.00 | 0.04 | 0.04 | 82 | 1012.5 |
| 20260508212003 | 60 | 0 | 0.0 | 0.0 | 0.00 | 0.04 | 0.04 | 82 | 1012.5 |
| 20260508211503 | 59 | 298 | 0.0 | 1.0 | 0.00 | 0.04 | 0.04 | 81 | 1012.5 |
| 20260508211003 | 59 | 305 | 0.0 | 5.0 | 0.00 | 0.04 | 0.04 | 81 | 1012.5 |
| 20260508210517 | 60 | 321 | 1.0 | 5.0 | 0.00 | 0.04 | 0.04 | 81 | 1012.6 |
| 20260508210003 | 60 | 345 | 1.0 | 2.0 | 0.00 | 0.04 | 0.04 | 81 | 1012.7 |
| 20260508205503 | 60 | 345 | 1.0 | 3.0 | 0.00 | 0.04 | 0.04 | 81 | 1012.6 |
| 20260508205003 | 60 | 345 | 1.0 | 3.0 | 0.00 | 0.04 | 0.04 | 80 | 1012.8 |
| 20260508204517 | 60 | 345 | 1.0 | 3.0 | 0.00 | 0.04 | 0.04 | 79 | 1012.6 |
| 20260508204017 | 60 | 341 | 1.0 | 4.0 | 0.00 | 0.04 | 0.04 | 78 | 1012.6 |
| 20260508203503 | 61 | 345 | 2.0 | 8.0 | 0.00 | 0.04 | 0.04 | 78 | 1012.6 |
| 20260508203003 | 61 | 348 | 2.0 | 8.0 | 0.00 | 0.04 | 0.04 | 77 | 1012.3 |
| 20260508202503 | 61 | 337 | 1.0 | 3.0 | 0.00 | 0.04 | 0.04 | 76 | 1012.3 |
| 20260508202003 | 61 | 308 | 1.0 | 3.0 | 0.00 | 0.04 | 0.04 | 76 | 1012.2 |
| 20260508201503 | 60 | 306 | 1.0 | 3.0 | 0.00 | 0.04 | 0.04 | 75 | 1012.0 |
| 20260508201003 | 60 | 305 | 1.0 | 3.0 | 0.00 | 0.04 | 0.04 | 75 | 1011.9 |
| 20260508200517 | 60 | 301 | 1.0 | 3.0 | 0.00 | 0.04 | 0.04 | 76 | 1011.5 |
| 20260508200017 | 61 | 301 | 1.0 | 3.0 | 0.00 | 0.04 | 0.04 | 77 | 1011.4 |
| 20260508195503 | 61 | 300 | 1.0 | 3.0 | 0.00 | 0.04 | 0.04 | 77 | 1011.3 |
| 20260508195003 | 61 | 296 | 1.0 | 5.0 | 0.00 | 0.04 | 0.04 | 76 | 1011.1 |
| 20260508194503 | 61 | 310 | 2.0 | 5.0 | 0.00 | 0.04 | 0.04 | 75 | 1011.0 |
| 20260508194003 | 61 | 304 | 2.0 | 4.0 | 0.00 | 0.04 | 0.04 | 75 | 1011.0 |
| 20260508193503 | 61 | 257 | 2.0 | 7.0 | 0.00 | 0.04 | 0.04 | 75 | 1010.9 |
| 20260508193003 | 61 | 253 | 3.0 | 7.0 | 0.00 | 0.04 | 0.04 | 74 | 1010.9 |
| 20260508192503 | 61 | 249 | 3.0 | 6.0 | 0.00 | 0.04 | 0.04 | 73 | 1010.7 |
| 20260508192003 | 61 | 228 | 2.0 | 6.0 | 0.00 | 0.04 | 0.04 | 74 | 1010.8 |
| 20260508191003 | 60 | 304 | 1.0 | 3.0 | 0.00 | 0.04 | 0.04 | 77 | 1010.7 |
| 20260508190503 | 60 | 304 | 1.0 | 3.0 | 0.00 | 0.04 | 0.04 | 78 | 1010.8 |
| 20260508190003 | 60 | 266 | 2.0 | 5.0 | 0.00 | 0.04 | 0.04 | 78 | 1010.7 |
| 20260508185517 | 60 | 256 | 2.0 | 5.0 | 0.00 | 0.04 | 0.04 | 78 | 1010.7 |
| 20260508185003 | 59 | 275 | 2.0 | 7.0 | 0.00 | 0.04 | 0.04 | 79 | 1010.7 |
| 20260508184503 | 59 | 288 | 3.0 | 8.0 | 0.00 | 0.04 | 0.04 | 79 | 1010.7 |
| 20260508184004 | 59 | 312 | 3.0 | 8.0 | 0.00 | 0.04 | 0.04 | 79 | 1010.7 |
| 20260508183503 | 59 | 320 | 2.0 | 5.0 | 0.00 | 0.04 | 0.04 | 80 | 1010.8 |
| 20260508183004 | 59 | 313 | 2.0 | 4.0 | 0.01 | 0.04 | 0.04 | 80 | 1010.8 |
| 20260508182503 | 59 | 303 | 2.0 | 5.0 | 0.02 | 0.04 | 0.04 | 80 | 1010.7 |
| 20260508182003 | 59 | 296 | 2.0 | 5.0 | 0.03 | 0.04 | 0.04 | 79 | 1010.8 |
| 20260508181503 | 59 | 290 | 1.0 | 4.0 | 0.04 | 0.04 | 0.04 | 79 | 1010.7 |
| 20260508181003 | 59 | 331 | 2.0 | 7.0 | 0.04 | 0.04 | 0.04 | 79 | 1010.7 |
| 20260508180503 | 59 | 311 | 2.0 | 7.0 | 0.04 | 0.04 | 0.04 | 79 | 1010.6 |
| 20260508180003 | 59 | 281 | 2.0 | 6.0 | 0.04 | 0.04 | 0.04 | 78 | 1010.7 |
| 20260508175503 | 59 | 268 | 3.0 | 10.0 | 0.04 | 0.04 | 0.04 | 78 | 1010.7 |
| 20260508175003 | 58 | 280 | 4.0 | 10.0 | 0.04 | 0.04 | 0.04 | 78 | 1010.6 |
| 20260508174503 | 58 | 301 | 5.0 | 13.0 | 0.04 | 0.04 | 0.04 | 78 | 1010.8 |
| 20260508174017 | 58 | 299 | 6.0 | 13.0 | 0.04 | 0.04 | 0.04 | 77 | 1010.8 |
| 20260508173503 | 58 | 262 | 6.0 | 14.0 | 0.04 | 0.04 | 0.04 | 79 | 1010.8 |
| 20260508173003 | 58 | 211 | 7.0 | 14.0 | 0.03 | 0.03 | 0.03 | 80 | 1011.2 |
| 20260508172504 | 58 | 195 | 9.0 | 17.0 | 0.02 | 0.02 | 0.02 | 79 | 1011.6 |
| 20260508172017 | 58 | 191 | 10.0 | 23.0 | 0.01 | 0.01 | 0.01 | 78 | 1011.7 |
| 20260508171503 | 59 | 182 | 9.0 | 23.0 | 0.00 | 0.00 | 0.00 | 77 | 1011.8 |
| 20260508171003 | 59 | 176 | 8.0 | 18.0 | 0.00 | 0.00 | 0.00 | 76 | 1011.5 |
| 20260508170503 | 60 | 192 | 8.0 | 18.0 | 0.00 | 0.00 | 0.00 | 73 | 1011.5 |
| 20260508170003 | 62 | 191 | 8.0 | 21.0 | 0.00 | 0.00 | 0.00 | 70 | 1011.5 |
| 20260508165517 | 63 | 183 | 8.0 | 21.0 | 0.00 | 0.00 | 0.00 | 64 | 1010.9 |
| 20260508165004 | 67 | 246 | 5.0 | 19.0 | 0.00 | 0.00 | 0.00 | 55 | 1011.3 |
| 20260508164517 | 70 | 325 | 3.0 | 11.0 | 0.00 | 0.00 | 0.00 | 48 | 1010.9 |
| 20260508164003 | 70 | 321 | 1.0 | 5.0 | 0.00 | 0.00 | 0.00 | 47 | 1010.4 |
| 20260508163503 | 70 | 301 | 1.0 | 3.0 | 0.00 | 0.00 | 0.00 | 47 | 1010.2 |
| 20260508163003 | 71 | 300 | 1.0 | 3.0 | 0.00 | 0.00 | 0.00 | 47 | 1010.0 |
| 20260508162503 | 71 | 293 | 1.0 | 3.0 | 0.00 | 0.00 | 0.00 | 47 | 1009.9 |
| 20260508162004 | 70 | 268 | 1.0 | 4.0 | 0.00 | 0.00 | 0.00 | 47 | 1009.7 |
| 20260508161517 | 70 | 262 | 2.0 | 4.0 | 0.00 | 0.00 | 0.00 | 47 | 1009.5 |
| 20260508161003 | 70 | 214 | 2.0 | 6.0 | 0.00 | 0.00 | 0.00 | 48 | 1009.6 |
| 20260508160503 | 71 | 163 | 3.0 | 10.0 | 0.00 | 0.00 | 0.00 | 47 | 1009.5 |
| 20260508160003 | 71 | 171 | 5.0 | 10.0 | 0.00 | 0.00 | 0.00 | 46 | 1009.5 |
| 20260508155503 | 71 | 183 | 6.0 | 11.0 | 0.00 | 0.00 | 0.00 | 45 | 1009.6 |
| 20260508155003 | 71 | 174 | 6.0 | 13.0 | 0.00 | 0.00 | 0.00 | 45 | 1009.7 |
| 20260508154517 | 71 | 166 | 6.0 | 13.0 | 0.00 | 0.00 | 0.00 | 45 | 1009.8 |
| 20260508154017 | 71 | 176 | 5.0 | 12.0 | 0.00 | 0.00 | 0.00 | 46 | 1009.6 |
| 20260508153503 | 71 | 170 | 4.0 | 11.0 | 0.00 | 0.00 | 0.00 | 47 | 1009.6 |
| 20260508153003 | 71 | 173 | 4.0 | 9.0 | 0.00 | 0.00 | 0.00 | 47 | 1009.7 |
| 20260508152503 | 70 | 170 | 4.0 | 10.0 | 0.00 | 0.00 | 0.00 | 47 | 1009.7 |
| 20260508152003 | 70 | 166 | 5.0 | 10.0 | 0.00 | 0.00 | 0.00 | 47 | 1009.8 |
| 20260508151504 | 70 | 163 | 6.0 | 12.0 | 0.00 | 0.00 | 0.00 | 47 | 1009.8 |
| 20260508151003 | 70 | 172 | 5.0 | 12.0 | 0.00 | 0.00 | 0.00 | 47 | 1009.9 |
| 20260508150503 | 70 | 178 | 4.0 | 10.0 | 0.00 | 0.00 | 0.00 | 47 | 1009.8 |
| 20260508150003 | 70 | 179 | 4.0 | 10.0 | 0.00 | 0.00 | 0.00 | 47 | 1009.9 |
| 20260508145517 | 70 | 171 | 4.0 | 8.0 | 0.00 | 0.00 | 0.00 | 48 | 1010.0 |
| 20260508145003 | 70 | 145 | 3.0 | 7.0 | 0.00 | 0.00 | 0.00 | 47 | 1010.1 |
| 20260508144503 | 70 | 155 | 3.0 | 8.0 | 0.00 | 0.00 | 0.00 | 47 | 1010.1 |
| 20260508144003 | 70 | 164 | 3.0 | 8.0 | 0.00 | 0.00 | 0.00 | 47 | 1010.1 |
| 20260508143503 | 70 | 146 | 3.0 | 7.0 | 0.00 | 0.00 | 0.00 | 46 | 1010.1 |
| 20260508143003 | 71 | 124 | 2.0 | 7.0 | 0.00 | 0.00 | 0.00 | 45 | 1010.2 |
| 20260508142503 | 70 | 129 | 3.0 | 11.0 | 0.00 | 0.00 | 0.00 | 47 | 1010.2 |
| 20260508142003 | 70 | 149 | 5.0 | 11.0 | 0.00 | 0.00 | 0.00 | 46 | 1010.2 |
| 20260508141503 | 70 | 161 | 5.0 | 13.0 | 0.00 | 0.00 | 0.00 | 46 | 1010.2 |
| 20260508141004 | 70 | 166 | 6.0 | 17.0 | 0.00 | 0.00 | 0.00 | 46 | 1010.3 |
| 20260508140503 | 70 | 173 | 6.0 | 17.0 | 0.00 | 0.00 | 0.00 | 45 | 1010.3 |
| 20260508140003 | 70 | 178 | 4.0 | 13.0 | 0.00 | 0.00 | 0.00 | 48 | 1010.3 |
| 20260508135503 | 70 | 173 | 4.0 | 7.0 | 0.00 | 0.00 | 0.00 | 50 | 1010.3 |
| 20260508135017 | 69 | 161 | 5.0 | 8.0 | 0.00 | 0.00 | 0.00 | 49 | 1010.4 |
| 20260508134503 | 69 | 152 | 4.0 | 8.0 | 0.00 | 0.00 | 0.00 | 49 | 1010.4 |
| 20260508134003 | 69 | 178 | 4.0 | 8.0 | 0.00 | 0.00 | 0.00 | 49 | 1010.4 |
| 20260508133503 | 69 | 194 | 4.0 | 10.0 | 0.00 | 0.00 | 0.00 | 50 | 1010.4 |
| 20260508133003 | 69 | 194 | 5.0 | 10.0 | 0.00 | 0.00 | 0.00 | 50 | 1010.4 |
| 20260508132503 | 69 | 193 | 5.0 | 9.0 | 0.00 | 0.00 | 0.00 | 50 | 1010.4 |
| 20260508132003 | 69 | 184 | 5.0 | 13.0 | 0.00 | 0.00 | 0.00 | 49 | 1010.4 |
| 20260508131503 | 69 | 177 | 6.0 | 14.0 | 0.00 | 0.00 | 0.00 | 49 | 1010.5 |
| 20260508131017 | 69 | 177 | 5.0 | 14.0 | 0.00 | 0.00 | 0.00 | 49 | 1010.4 |
| 20260508130518 | 69 | 186 | 5.0 | 12.0 | 0.00 | 0.00 | 0.00 | 49 | 1010.4 |
| 20260508130003 | 68 | 181 | 6.0 | 12.0 | 0.00 | 0.00 | 0.00 | 50 | 1010.5 |
| 20260508125503 | 68 | 163 | 7.0 | 13.0 | 0.00 | 0.00 | 0.00 | 49 | 1010.5 |
| 20260508125003 | 68 | 165 | 7.0 | 15.0 | 0.00 | 0.00 | 0.00 | 49 | 1010.5 |